Time;durP1;ratioP1;P1;durP2;ratioP2;P2;SDS_P1;SDS_P2;PMS_P1;PMS_P2;Temp;Humidity;BMP_temperature;BMP_pressure;BME280_temperature;BME280_humidity;BME280_pressure;Samples;Min_cycle;Max_cycle;Signal;HPM_P1;HPM_P2
2021/03/02 00:02:25;;;;;;;54.70;28.87;;;3.80;99.90;;;;;;5025440;28;20219;-65
2021/03/02 00:04:52;;;;;;;61.03;29.97;;;3.80;99.90;;;;;;5026676;28;20199;-67
2021/03/02 00:07:19;;;;;;;57.53;30.10;;;3.70;99.90;;;;;;5024087;28;20224;-63
2021/03/02 00:09:46;;;;;;;58.00;30.07;;;3.70;99.90;;;;;;5026034;28;20204;-64
2021/03/02 00:12:14;;;;;;;63.17;30.70;;;3.50;99.90;;;;;;5032505;28;20208;-63
2021/03/02 00:14:41;;;;;;;58.67;31.13;;;3.50;99.90;;;;;;5030131;28;20196;-63
2021/03/02 00:17:15;;;;;;;60.60;31.53;;;3.50;99.90;;;;;;5031777;28;20196;-64
2021/03/02 00:19:48;;;;;;;59.90;31.37;;;3.50;99.90;;;;;;5026125;28;20222;-63
2021/03/02 00:22:22;;;;;;;64.03;32.17;;;3.50;99.90;;;;;;5029989;28;20220;-66
2021/03/02 00:24:53;;;;;;;59.87;30.67;;;3.50;99.90;;;;;;5030312;28;20219;-66
2021/03/02 00:27:22;;;;;;;60.67;30.50;;;3.40;99.90;;;;;;5021727;28;20269;-63
2021/03/02 00:29:49;;;;;;;60.50;30.47;;;3.30;99.90;;;;;;5028070;28;20192;-64
2021/03/02 00:32:19;;;;;;;63.07;31.60;;;3.30;99.90;;;;;;5026474;28;20205;-64
2021/03/02 00:34:47;;;;;;;63.57;31.30;;;3.30;99.90;;;;;;5023563;28;20229;-63
2021/03/02 00:37:13;;;;;;;58.47;31.00;;;3.30;99.90;;;;;;5025402;28;20291;-65
2021/03/02 00:39:40;;;;;;;65.57;32.13;;;3.20;99.90;;;;;;5020826;28;20201;-65
2021/03/02 00:42:07;;;;;;;60.87;31.93;;;3.20;99.90;;;;;;5018997;28;20227;-66
2021/03/02 00:44:33;;;;;;;59.67;30.80;;;3.10;99.90;;;;;;5020760;28;20207;-63
2021/03/02 00:47:00;;;;;;;62.60;32.90;;;3.00;99.90;;;;;;5025747;28;20685;-64
2021/03/02 00:49:26;;;;;;;59.07;31.13;;;2.90;99.90;;;;;;5021981;28;20211;-64
2021/03/02 00:51:54;;;;;;;64.07;32.40;;;2.90;99.90;;;;;;5018790;28;20208;-64
2021/03/02 00:54:21;;;;;;;58.20;30.93;;;2.90;99.90;;;;;;5020276;28;20561;-63
2021/03/02 00:56:47;;;;;;;60.70;32.77;;;2.80;99.90;;;;;;5018298;28;20220;-64
2021/03/02 00:59:14;;;;;;;67.97;32.50;;;2.90;99.90;;;;;;5026624;28;20240;-62
2021/03/02 01:01:41;;;;;;;65.13;33.33;;;2.90;99.90;;;;;;5027418;28;20759;-64
2021/03/02 01:04:07;;;;;;;65.93;31.73;;;2.80;99.90;;;;;;5003190;28;20197;-65
2021/03/02 01:06:34;;;;;;;66.60;32.13;;;2.80;99.90;;;;;;5024816;28;20205;-63
2021/03/02 01:09:02;;;;;;;66.57;32.20;;;2.70;99.90;;;;;;5026249;28;20200;-63
2021/03/02 01:11:28;;;;;;;66.10;32.43;;;2.60;99.90;;;;;;5022409;28;20208;-62
2021/03/02 01:13:55;;;;;;;69.77;34.00;;;2.60;99.90;;;;;;5024468;28;20200;-63
2021/03/02 01:16:21;;;;;;;67.87;33.47;;;2.60;99.90;;;;;;5022731;28;20211;-63
2021/03/02 01:18:48;;;;;;;65.90;32.67;;;2.60;99.90;;;;;;5022641;28;20216;-63
2021/03/02 01:21:15;;;;;;;65.00;32.70;;;2.60;99.90;;;;;;5028067;28;20278;-63
2021/03/02 01:23:41;;;;;;;73.00;35.27;;;2.50;99.90;;;;;;5024618;28;20234;-63
2021/03/02 01:26:09;;;;;;;72.97;34.00;;;2.60;99.90;;;;;;5022849;28;20200;-67
2021/03/02 01:28:35;;;;;;;74.67;34.90;;;2.60;99.90;;;;;;5018604;28;20796;-65
2021/03/02 01:31:02;;;;;;;75.87;33.13;;;2.60;99.90;;;;;;5015190;28;20252;-66
2021/03/02 01:33:28;;;;;;;74.70;36.03;;;2.60;99.90;;;;;;5016252;28;20274;-65
2021/03/02 01:35:54;;;;;;;78.10;35.47;;;2.60;99.90;;;;;;5018807;28;20200;-63
2021/03/02 01:38:21;;;;;;;68.43;33.73;;;2.60;99.90;;;;;;5017861;28;20196;-66
2021/03/02 01:40:47;;;;;;;75.87;36.17;;;2.60;99.90;;;;;;5018551;28;20201;-64
2021/03/02 01:43:15;;;;;;;69.00;35.40;;;2.60;99.90;;;;;;5014410;28;20197;-66
2021/03/02 01:45:42;;;;;;;73.83;34.50;;;2.70;99.90;;;;;;5015289;28;20209;-65
2021/03/02 01:48:09;;;;;;;70.93;34.63;;;2.60;99.90;;;;;;5017545;28;20658;-67
2021/03/02 01:50:36;;;;;;;74.00;35.73;;;2.60;99.90;;;;;;5016940;28;20204;-64
2021/03/02 01:53:02;;;;;;;81.90;35.33;;;2.60;99.90;;;;;;5017060;28;20208;-64
2021/03/02 01:55:29;;;;;;;72.43;35.23;;;2.50;99.90;;;;;;5014764;28;20224;-63
2021/03/02 01:57:55;;;;;;;73.20;37.80;;;2.50;99.90;;;;;;5016165;28;20725;-64
2021/03/02 02:00:27;;;;;;;78.90;35.97;;;2.50;99.90;;;;;;5013997;28;20567;-65
2021/03/02 02:03:18;;;;;;;76.33;34.43;;;2.50;99.90;;;;;;5015485;28;20212;-66
2021/03/02 02:05:48;;;;;;;75.50;36.23;;;2.50;99.90;;;;;;5020068;28;20685;-64
2021/03/02 02:08:21;;;;;;;80.60;35.63;;;2.70;99.90;;;;;;5033514;28;20189;-62
2021/03/02 02:10:52;;;;;;;81.33;35.33;;;2.60;99.90;;;;;;5024479;28;20268;-65
2021/03/02 02:13:26;;;;;;;84.03;35.93;;;2.60;99.90;;;;;;5014444;28;20646;-66
2021/03/02 02:15:56;;;;;;;77.17;36.13;;;2.60;99.90;;;;;;5018633;28;20215;-65
2021/03/02 02:18:29;;;;;;;84.73;36.00;;;2.50;99.90;;;;;;5017045;28;20216;-67
2021/03/02 02:21:10;;;;;;;87.37;37.90;;;2.60;99.90;;;;;;5017933;28;20196;-65
2021/03/02 02:23:42;;;;;;;83.30;38.03;;;2.70;99.90;;;;;;5011280;28;20235;-64
2021/03/02 02:26:48;;;;;;;83.50;38.23;;;2.70;99.90;;;;;;5016147;28;20204;-65
2021/03/02 02:29:21;;;;;;;84.90;37.50;;;2.80;99.90;;;;;;4998697;28;20660;-64
2021/03/02 02:31:49;;;;;;;82.27;37.07;;;2.70;99.90;;;;;;5015750;28;20207;-63
2021/03/02 02:34:18;;;;;;;89.80;37.53;;;2.70;99.90;;;;;;5019379;28;20220;-64
2021/03/02 02:36:48;;;;;;;80.73;37.10;;;2.70;99.90;;;;;;5016290;28;20201;-65
2021/03/02 02:39:16;;;;;;;83.23;37.73;;;2.70;99.90;;;;;;5017911;28;20571;-65
2021/03/02 02:41:43;;;;;;;85.53;38.13;;;2.70;99.90;;;;;;5016353;28;20217;-64
2021/03/02 02:44:12;;;;;;;84.03;37.40;;;2.60;99.90;;;;;;5018544;28;20204;-64
2021/03/02 02:46:40;;;;;;;86.43;39.83;;;2.70;99.90;;;;;;5014658;28;20200;-65
2021/03/02 02:49:10;;;;;;;89.00;35.83;;;2.60;99.90;;;;;;5014725;28;20197;-64
2021/03/02 02:51:38;;;;;;;75.03;38.00;;;2.60;99.90;;;;;;5016846;28;20200;-63
2021/03/02 02:54:05;;;;;;;87.73;37.67;;;2.50;99.90;;;;;;5015404;28;20666;-65
2021/03/02 02:56:35;;;;;;;84.47;39.57;;;2.50;99.90;;;;;;5015382;28;20235;-65
2021/03/02 02:59:06;;;;;;;86.27;38.30;;;2.40;99.90;;;;;;5015167;28;20211;-65
2021/03/02 03:01:34;;;;;;;87.97;37.10;;;2.40;99.90;;;;;;5019546;28;20219;-65
2021/03/02 03:04:06;;;;;;;89.27;38.00;;;2.40;99.90;;;;;;5015832;28;20669;-63
2021/03/02 03:06:37;;;;;;;88.67;37.73;;;2.30;99.90;;;;;;5018695;28;20192;-63
2021/03/02 03:09:06;;;;;;;79.27;36.63;;;2.20;99.90;;;;;;5011134;28;20276;-67
2021/03/02 03:11:37;;;;;;;80.33;37.20;;;2.20;99.90;;;;;;5015895;28;20310;-66
2021/03/02 03:14:06;;;;;;;86.63;37.13;;;2.20;99.90;;;;;;5016568;28;20224;-64
2021/03/02 03:16:34;;;;;;;84.30;38.87;;;2.10;99.90;;;;;;5014109;28;20293;-63
2021/03/02 03:19:02;;;;;;;91.57;39.53;;;2.20;99.90;;;;;;5012680;28;20208;-66
2021/03/02 03:21:29;;;;;;;88.53;38.90;;;2.30;99.90;;;;;;5013953;28;20289;-65
2021/03/02 03:23:57;;;;;;;92.40;39.77;;;2.20;99.90;;;;;;5018143;28;20228;-66
2021/03/02 03:26:27;;;;;;;92.60;39.77;;;2.30;99.90;;;;;;5024114;28;20220;-65
2021/03/02 03:28:56;;;;;;;89.87;39.17;;;2.30;99.90;;;;;;5017342;28;20263;-63
2021/03/02 03:31:22;;;;;;;90.83;39.53;;;2.30;99.90;;;;;;5014041;28;20903;-65
2021/03/02 03:33:52;;;;;;;82.30;39.33;;;2.30;99.90;;;;;;5016177;28;20201;-64
2021/03/02 03:36:20;;;;;;;95.13;38.57;;;2.30;99.90;;;;;;5017587;28;20193;-65
2021/03/02 03:38:47;;;;;;;85.47;38.90;;;2.20;99.90;;;;;;5015769;28;20208;-66
2021/03/02 03:41:14;;;;;;;96.93;39.63;;;2.30;99.90;;;;;;5015947;28;20207;-64
2021/03/02 03:43:41;;;;;;;94.53;40.77;;;2.30;99.90;;;;;;5013717;28;20287;-65
2021/03/02 03:46:08;;;;;;;90.27;40.97;;;2.30;99.90;;;;;;5018257;28;20203;-63
2021/03/02 03:48:34;;;;;;;91.77;39.03;;;2.20;99.90;;;;;;5019514;28;20263;-67
2021/03/02 03:51:01;;;;;;;89.93;40.27;;;2.30;99.90;;;;;;5014492;28;20209;-67
2021/03/02 03:53:32;;;;;;;97.87;39.63;;;2.20;99.90;;;;;;5018401;28;20294;-64
2021/03/02 03:56:00;;;;;;;90.67;38.90;;;2.20;99.90;;;;;;5018762;28;20666;-64
2021/03/02 03:58:29;;;;;;;100.03;40.90;;;2.20;99.90;;;;;;5013836;28;20220;-65
2021/03/02 04:00:57;;;;;;;91.20;40.33;;;2.20;99.90;;;;;;5014997;28;20228;-66
2021/03/02 04:03:25;;;;;;;97.57;40.30;;;2.10;99.90;;;;;;5016520;28;22461;-67
2021/03/02 04:05:52;;;;;;;98.67;40.47;;;2.10;99.90;;;;;;5013470;28;20682;-65
2021/03/02 04:08:19;;;;;;;89.53;38.83;;;2.00;99.90;;;;;;5015544;28;20278;-65
2021/03/02 04:10:47;;;;;;;90.20;39.40;;;2.00;99.90;;;;;;5018326;28;20201;-65
2021/03/02 04:13:15;;;;;;;102.20;41.03;;;1.90;99.90;;;;;;5014503;28;20208;-65
2021/03/02 04:15:42;;;;;;;94.97;42.13;;;2.00;99.90;;;;;;5018471;28;20275;-62
2021/03/02 04:18:12;;;;;;;99.70;40.53;;;2.00;99.90;;;;;;5018535;28;20776;-64
2021/03/02 04:20:40;;;;;;;96.00;41.33;;;2.00;99.90;;;;;;5019489;28;20550;-62
2021/03/02 04:23:07;;;;;;;96.90;40.10;;;2.00;99.90;;;;;;5017724;28;20689;-64
2021/03/02 04:25:33;;;;;;;95.47;40.17;;;1.90;99.90;;;;;;5019632;28;20204;-65
2021/03/02 04:28:03;;;;;;;98.53;41.67;;;1.90;99.90;;;;;;5018382;28;20203;-66
2021/03/02 04:30:29;;;;;;;101.80;41.73;;;1.90;99.90;;;;;;5018081;28;20255;-66
2021/03/02 04:32:56;;;;;;;94.40;41.07;;;1.90;99.90;;;;;;5016666;28;20305;-63
2021/03/02 04:35:22;;;;;;;96.77;42.47;;;1.90;99.90;;;;;;5015835;28;20239;-67
2021/03/02 04:37:49;;;;;;;89.47;40.63;;;1.90;99.90;;;;;;5019983;28;20229;-65
2021/03/02 04:40:17;;;;;;;101.07;41.93;;;1.80;99.90;;;;;;5023160;28;20267;-67
2021/03/02 04:42:44;;;;;;;98.67;39.93;;;1.80;99.90;;;;;;5019788;28;20233;-67
2021/03/02 04:45:14;;;;;;;103.80;40.97;;;1.70;99.90;;;;;;5020486;28;20703;-64
2021/03/02 04:47:42;;;;;;;101.90;40.83;;;1.80;99.90;;;;;;5025834;28;20200;-63
2021/03/02 04:50:10;;;;;;;106.97;41.97;;;1.70;99.90;;;;;;5020410;28;20200;-64
2021/03/02 04:52:37;;;;;;;104.70;40.57;;;1.70;99.90;;;;;;5025044;28;20557;-67
2021/03/02 04:55:05;;;;;;;94.37;40.67;;;1.70;99.90;;;;;;5023227;28;20212;-63
2021/03/02 04:57:31;;;;;;;114.93;42.30;;;1.70;99.90;;;;;;5022932;28;20228;-64
2021/03/02 04:59:59;;;;;;;94.03;39.67;;;1.70;99.90;;;;;;5024760;28;20196;-66
2021/03/02 05:02:26;;;;;;;100.17;41.57;;;1.60;99.90;;;;;;5023070;28;20232;-65
2021/03/02 05:04:53;;;;;;;107.87;41.30;;;1.60;99.90;;;;;;5023799;28;20538;-62
2021/03/02 05:07:19;;;;;;;101.23;40.87;;;1.60;99.90;;;;;;5026371;28;20196;-65
2021/03/02 05:09:46;;;;;;;97.60;40.27;;;1.50;99.90;;;;;;5028646;28;20600;-67
2021/03/02 05:12:12;;;;;;;96.23;38.90;;;1.40;99.90;;;;;;5022314;28;20244;-64
2021/03/02 05:14:39;;;;;;;98.97;40.07;;;1.20;99.90;;;;;;5022448;28;20250;-63
2021/03/02 05:17:06;;;;;;;102.17;37.63;;;1.10;99.90;;;;;;5026343;28;20577;-65
2021/03/02 05:19:33;;;;;;;101.70;38.30;;;0.80;99.90;;;;;;5024716;28;20203;-66
2021/03/02 05:22:00;;;;;;;90.60;38.03;;;0.70;99.90;;;;;;5025288;28;20580;-65
2021/03/02 05:24:26;;;;;;;89.90;35.67;;;0.60;99.90;;;;;;5021428;28;20559;-65
2021/03/02 05:26:53;;;;;;;83.67;35.67;;;0.60;99.90;;;;;;5023809;28;20247;-67
2021/03/02 05:29:20;;;;;;;75.77;34.03;;;0.50;99.90;;;;;;5025854;28;20208;-65
2021/03/02 05:31:46;;;;;;;81.37;35.17;;;0.50;99.90;;;;;;5020461;28;20211;-66
2021/03/02 05:34:13;;;;;;;88.20;37.40;;;0.50;99.90;;;;;;5026030;28;20558;-65
2021/03/02 05:36:41;;;;;;;79.63;36.20;;;0.50;99.90;;;;;;5025552;28;20197;-63
2021/03/02 05:39:07;;;;;;;86.70;35.17;;;0.50;99.90;;;;;;5024545;28;20196;-63
2021/03/02 05:41:35;;;;;;;94.40;35.33;;;0.50;99.90;;;;;;5021203;28;20330;-63
2021/03/02 05:44:03;;;;;;;81.77;36.30;;;0.40;99.90;;;;;;5017078;28;20212;-67
2021/03/02 05:46:29;;;;;;;79.50;34.13;;;0.30;99.90;;;;;;5023182;28;20569;-65
2021/03/02 05:48:56;;;;;;;80.93;35.10;;;0.30;99.90;;;;;;5020618;28;20197;-67
2021/03/02 05:51:23;;;;;;;75.33;32.67;;;0.30;99.90;;;;;;5015638;28;20215;-65
2021/03/02 05:53:51;;;;;;;78.50;33.17;;;0.30;99.90;;;;;;5017218;28;20564;-67
2021/03/02 05:56:18;;;;;;;69.63;31.70;;;0.20;99.90;;;;;;5024717;28;20228;-64
2021/03/02 05:58:44;;;;;;;73.87;33.13;;;0.30;99.90;;;;;;5024090;28;20195;-65
2021/03/02 06:01:11;;;;;;;74.40;32.60;;;0.40;99.90;;;;;;5023367;28;20207;-64
2021/03/02 06:03:38;;;;;;;73.70;32.80;;;0.30;99.90;;;;;;5021775;28;20317;-64
2021/03/02 06:06:05;;;;;;;74.70;32.03;;;0.20;99.90;;;;;;5017940;28;20196;-65
2021/03/02 06:08:33;;;;;;;66.27;32.43;;;0.20;99.90;;;;;;5012723;28;20236;-65
2021/03/02 06:11:23;;;;;;;75.40;32.20;;;0.10;99.90;;;;;;5020053;28;20192;-63
2021/03/02 06:13:50;;;;;;;70.63;32.43;;;0.20;99.90;;;;;;5020833;28;20204;-67
2021/03/02 06:16:17;;;;;;;73.10;32.93;;;0.20;99.90;;;;;;5022270;28;20223;-63
2021/03/02 06:18:51;;;;;;;74.93;32.67;;;0.30;99.90;;;;;;5025911;28;20569;-64
2021/03/02 06:21:18;;;;;;;77.70;32.47;;;0.30;99.90;;;;;;5020837;28;20202;-63
2021/03/02 06:23:50;;;;;;;81.10;34.33;;;0.30;99.90;;;;;;5024761;28;20208;-65
2021/03/02 06:26:24;;;;;;;104.53;39.80;;;0.40;99.90;;;;;;5019309;28;20196;-64
2021/03/02 06:28:52;;;;;;;78.10;34.40;;;0.50;99.90;;;;;;5021053;28;20353;-64
2021/03/02 06:31:33;;;;;;;88.53;35.40;;;0.50;99.90;;;;;;5023202;28;20204;-64
2021/03/02 06:34:08;;;;;;;83.63;34.63;;;0.50;99.90;;;;;;5025016;28;20246;-63
2021/03/02 06:36:35;;;;;;;92.50;37.07;;;0.40;99.90;;;;;;5021332;28;20204;-67
2021/03/02 06:39:22;;;;;;;85.47;37.07;;;0.50;99.90;;;;;;5016162;28;20237;-63
2021/03/02 06:41:50;;;;;;;82.00;36.37;;;0.50;99.90;;;;;;5022172;28;20285;-63
2021/03/02 06:44:17;;;;;;;85.60;37.17;;;0.60;99.90;;;;;;5022599;28;20205;-62
2021/03/02 06:46:44;;;;;;;102.70;40.10;;;0.60;99.90;;;;;;5024201;28;20203;-63
2021/03/02 06:49:10;;;;;;;102.23;41.80;;;0.70;99.90;;;;;;5021100;28;20852;-64
2021/03/02 06:51:39;;;;;;;96.67;40.93;;;0.90;99.90;;;;;;5021427;28;20212;-63
2021/03/02 06:54:07;;;;;;;107.00;40.60;;;1.00;99.90;;;;;;5021850;28;20200;-63
2021/03/02 06:56:34;;;;;;;113.90;39.97;;;1.10;99.90;;;;;;5018175;28;20693;-63
2021/03/02 06:59:12;;;;;;;112.87;41.83;;;1.10;99.90;;;;;;5023628;28;20899;-66
2021/03/02 07:01:39;;;;;;;94.00;40.03;;;1.00;99.90;;;;;;5020213;28;20275;-63
2021/03/02 07:04:10;;;;;;;93.73;40.10;;;1.10;99.90;;;;;;5022224;28;20201;-63
2021/03/02 07:06:38;;;;;;;93.97;37.93;;;1.10;99.90;;;;;;5025139;28;20543;-66
2021/03/02 07:09:06;;;;;;;96.70;40.07;;;1.20;99.90;;;;;;5024901;28;20230;-65
2021/03/02 07:11:35;;;;;;;95.80;39.63;;;1.40;99.90;;;;;;5020984;28;20205;-63
2021/03/02 07:14:03;;;;;;;102.27;41.67;;;1.50;99.90;;;;;;5017275;28;20291;-66
2021/03/02 07:16:31;;;;;;;101.43;41.40;;;1.60;99.90;;;;;;5014641;28;20215;-66
2021/03/02 07:19:02;;;;;;;110.53;42.33;;;1.80;99.90;;;;;;5015386;28;20208;-67
2021/03/02 07:21:30;;;;;;;111.57;41.53;;;1.90;99.90;;;;;;5018466;28;20246;-66
2021/03/02 07:23:59;;;;;;;114.17;45.13;;;2.10;99.90;;;;;;5019521;28;20196;-66
2021/03/02 07:26:27;;;;;;;118.20;47.03;;;2.30;99.90;;;;;;5015054;28;20220;-65
2021/03/02 07:28:54;;;;;;;120.60;48.00;;;2.40;99.90;;;;;;5016430;28;20658;-69
2021/03/02 07:31:21;;;;;;;125.97;50.93;;;2.50;99.90;;;;;;5016302;28;20212;-67
2021/03/02 07:33:50;;;;;;;122.37;48.27;;;2.60;99.90;;;;;;5016886;28;20203;-65
2021/03/02 07:36:17;;;;;;;128.83;50.40;;;2.80;99.90;;;;;;5013299;28;20275;-65
2021/03/02 07:38:43;;;;;;;126.90;49.37;;;2.90;99.90;;;;;;5012423;28;20197;-65
2021/03/02 07:41:10;;;;;;;125.47;51.63;;;3.00;99.90;;;;;;5014391;28;20216;-65
2021/03/02 07:43:37;;;;;;;124.43;51.33;;;3.00;99.90;;;;;;5015607;28;20224;-66
2021/03/02 07:46:43;;;;;;;137.03;54.00;;;3.10;99.90;;;;;;5020532;28;20204;-65
2021/03/02 07:49:33;;;;;;;139.43;54.57;;;3.40;99.90;;;;;;5020288;28;20654;-66
2021/03/02 07:52:19;;;;;;;143.10;56.57;;;4.00;99.90;;;;;;5021732;28;20270;-63
2021/03/02 07:54:46;;;;;;;148.17;61.37;;;4.50;99.90;;;;;;5020597;28;20291;-61
2021/03/02 07:57:27;;;;;;;153.50;62.27;;;4.80;99.90;;;;;;5018926;28;20322;-66
2021/03/02 08:00:22;;;;;;;141.33;58.50;;;4.80;99.90;;;;;;5023536;28;20205;-64
2021/03/02 08:03:29;;;;;;;158.70;65.30;;;4.60;99.90;;;;;;5016567;28;20260;-65
2021/03/02 08:06:25;;;;;;;152.73;63.80;;;5.30;99.90;;;;;;5016349;28;20202;-62
2021/03/02 08:08:53;;;;;;;161.57;63.43;;;5.50;99.90;;;;;;5021214;28;20203;-65
2021/03/02 08:11:33;;;;;;;154.53;68.23;;;5.60;99.90;;;;;;5018269;28;20201;-64
2021/03/02 08:14:01;;;;;;;171.97;68.67;;;5.70;99.90;;;;;;5018158;28;20204;-62
2021/03/02 08:16:55;;;;;;;160.37;67.73;;;5.80;99.90;;;;;;5021163;28;20216;-63
2021/03/02 08:19:37;;;;;;;166.77;71.23;;;6.10;99.90;;;;;;5018088;28;20196;-65
2021/03/02 08:22:32;;;;;;;165.13;71.53;;;6.50;99.90;;;;;;5024673;28;20243;-62
2021/03/02 08:25:02;;;;;;;153.83;67.63;;;6.70;99.90;;;;;;5020411;28;20196;-62
2021/03/02 08:27:39;;;;;;;143.70;69.57;;;6.80;99.90;;;;;;5023798;28;20235;-64
2021/03/02 08:30:08;;;;;;;139.37;68.10;;;6.90;99.90;;;;;;5031574;28;20219;-67
2021/03/02 08:32:34;;;;;;;141.87;65.60;;;6.90;99.90;;;;;;5032470;28;20234;-64
2021/03/02 08:35:05;;;;;;;140.00;66.03;;;7.20;99.90;;;;;;5030784;28;20250;-64
2021/03/02 08:37:38;;;;;;;135.40;67.17;;;7.60;99.90;;;;;;5035454;28;20200;-63
2021/03/02 08:40:08;;;;;;;119.13;62.07;;;8.10;99.90;;;;;;5034412;28;20231;-62
2021/03/02 08:42:34;;;;;;;111.80;59.77;;;8.40;99.90;;;;;;5032891;28;20220;-66
2021/03/02 08:45:09;;;;;;;102.13;55.60;;;8.70;99.90;;;;;;5033205;28;20281;-67
2021/03/02 08:47:36;;;;;;;71.53;41.03;;;9.10;99.90;;;;;;5035110;28;20192;-61
2021/03/02 08:50:03;;;;;;;55.13;35.87;;;9.40;99.90;;;;;;5032716;28;20660;-63
2021/03/02 08:52:37;;;;;;;45.50;30.37;;;9.50;99.90;;;;;;5008401;28;20205;-65
2021/03/02 08:55:05;;;;;;;39.10;25.93;;;9.90;99.90;;;;;;5022893;28;20197;-69
2021/03/02 08:57:43;;;;;;;30.10;22.97;;;10.20;99.90;;;;;;5033671;28;20243;-61
2021/03/02 09:00:15;;;;;;;26.77;20.50;;;10.60;99.90;;;;;;5033257;28;20199;-67
2021/03/02 09:02:43;;;;;;;30.20;20.63;;;11.30;99.90;;;;;;5023394;28;20231;-63
2021/03/02 09:05:15;;;;;;;22.73;18.40;;;11.90;99.90;;;;;;5020584;28;20204;-63
2021/03/02 09:07:42;;;;;;;23.37;17.10;;;12.50;99.90;;;;;;5021260;28;20934;-63
2021/03/02 09:10:15;;;;;;;26.87;17.33;;;13.10;99.90;;;;;;5020393;28;20208;-63
2021/03/02 09:12:49;;;;;;;24.40;15.87;;;13.30;99.90;;;;;;5028790;28;20660;-63
2021/03/02 09:15:16;;;;;;;22.57;16.53;;;13.30;99.90;;;;;;5028333;28;20222;-62
2021/03/02 09:17:42;;;;;;;21.67;16.00;;;13.60;99.90;;;;;;5034391;28;20731;-65
2021/03/02 09:20:10;;;;;;;24.17;16.37;;;14.10;99.90;;;;;;5033233;28;20562;-63
2021/03/02 09:22:36;;;;;;;20.33;15.23;;;14.60;99.90;;;;;;5034248;28;20232;-61
2021/03/02 09:25:03;;;;;;;20.13;14.80;;;14.80;99.90;;;;;;5032017;28;20208;-63
2021/03/02 09:27:32;;;;;;;19.77;15.33;;;15.00;99.90;;;;;;5032335;28;20200;-63
2021/03/02 09:30:01;;;;;;;19.83;15.50;;;15.20;99.90;;;;;;5031423;28;20211;-66
2021/03/02 09:32:29;;;;;;;18.27;14.60;;;15.30;99.90;;;;;;5033377;28;20200;-65
2021/03/02 09:34:58;;;;;;;21.10;14.57;;;15.50;99.90;;;;;;5034315;28;20203;-66
2021/03/02 09:37:25;;;;;;;19.50;15.60;;;15.60;99.90;;;;;;5033076;28;20208;-64
2021/03/02 09:39:57;;;;;;;20.60;14.93;;;15.90;99.90;;;;;;5036244;28;20265;-61
2021/03/02 09:42:25;;;;;;;19.37;14.90;;;16.20;99.90;;;;;;5033615;28;20759;-61
2021/03/02 09:44:54;;;;;;;19.13;15.17;;;16.70;99.90;;;;;;5032183;28;20258;-63
2021/03/02 09:47:27;;;;;;;18.77;14.93;;;16.90;99.90;;;;;;5034062;28;20564;-61
2021/03/02 09:49:59;;;;;;;18.07;14.70;;;16.80;99.90;;;;;;5032283;28;20200;-62
2021/03/02 09:52:39;;;;;;;16.73;14.37;;;16.70;99.90;;;;;;5039918;28;20216;-62
2021/03/02 09:55:25;;;;;;;17.97;15.07;;;17.10;99.90;;;;;;5029234;28;20201;-61
2021/03/02 09:57:57;;;;;;;19.97;14.60;;;17.10;99.90;;;;;;5027842;28;20240;-60
2021/03/02 10:00:26;;;;;;;19.10;15.33;;;17.20;99.90;;;;;;5025523;28;20200;-61
2021/03/02 10:02:56;;;;;;;17.20;13.93;;;17.00;99.90;;;;;;5027475;28;20235;-63
2021/03/02 10:05:34;;;;;;;19.33;14.90;;;16.90;99.90;;;;;;5025002;28;20362;-61
2021/03/02 10:08:15;;;;;;;18.27;14.13;;;17.00;99.90;;;;;;5027502;28;20204;-62
2021/03/02 10:10:41;;;;;;;16.33;14.10;;;16.80;99.90;;;;;;5027130;28;20203;-63
2021/03/02 10:13:08;;;;;;;19.27;14.83;;;17.10;99.90;;;;;;5028704;28;20228;-63
2021/03/02 10:15:34;;;;;;;18.43;14.47;;;17.30;99.90;;;;;;5023298;28;20192;-65
2021/03/02 10:18:03;;;;;;;21.70;15.80;;;17.60;99.90;;;;;;5030133;28;20613;-62
2021/03/02 10:20:30;;;;;;;20.37;13.97;;;17.90;99.90;;;;;;5027770;28;20681;-63
2021/03/02 10:23:03;;;;;;;16.23;13.77;;;17.90;99.90;;;;;;5029929;28;20743;-61
2021/03/02 10:25:40;;;;;;;17.87;15.03;;;17.80;99.90;;;;;;5024641;28;20567;-65
2021/03/02 10:28:07;;;;;;;15.30;13.70;;;18.10;99.90;;;;;;5026252;28;20279;-60
2021/03/02 10:30:34;;;;;;;17.70;14.10;;;18.20;99.90;;;;;;5027612;28;20196;-63
2021/03/02 10:33:00;;;;;;;17.13;13.00;;;18.60;99.90;;;;;;5036976;28;20203;-64
2021/03/02 10:35:27;;;;;;;15.87;13.70;;;18.90;99.90;;;;;;5035268;28;20200;-62
2021/03/02 10:37:54;;;;;;;19.13;13.70;;;19.10;99.90;;;;;;5036157;28;20204;-61
2021/03/02 10:40:21;;;;;;;15.57;13.13;;;19.20;99.90;;;;;;5031759;28;20201;-59
2021/03/02 10:42:48;;;;;;;15.07;13.23;;;19.50;99.90;;;;;;5033216;28;20243;-62
2021/03/02 10:45:14;;;;;;;17.53;13.97;;;19.60;99.90;;;;;;5032867;28;20200;-60
2021/03/02 10:47:41;;;;;;;18.40;15.40;;;19.00;99.90;;;;;;5033349;28;20196;-60
2021/03/02 10:50:09;;;;;;;16.63;12.57;;;18.80;99.90;;;;;;5032131;28;20234;-61
2021/03/02 10:52:36;;;;;;;17.63;14.33;;;18.50;99.90;;;;;;5030663;28;20211;-63
2021/03/02 10:55:03;;;;;;;16.23;13.63;;;17.70;99.90;;;;;;5029737;28;21710;-61
2021/03/02 10:57:30;;;;;;;16.13;13.77;;;17.40;99.90;;;;;;5030975;28;20277;-62
2021/03/02 10:59:56;;;;;;;18.97;13.87;;;17.50;99.90;;;;;;5033083;28;20200;-65
2021/03/02 11:02:22;;;;;;;14.83;13.30;;;17.30;99.90;;;;;;5030143;28;20234;-64
2021/03/02 11:04:49;;;;;;;16.57;13.70;;;17.30;99.90;;;;;;5031654;28;20204;-61
2021/03/02 11:07:15;;;;;;;16.17;13.33;;;17.10;99.90;;;;;;5033859;28;20204;-62
2021/03/02 11:09:43;;;;;;;17.70;13.60;;;17.10;99.90;;;;;;5031617;28;20203;-63
2021/03/02 11:12:09;;;;;;;18.43;14.07;;;16.70;99.90;;;;;;5012612;28;20204;-63
2021/03/02 11:14:36;;;;;;;17.00;13.63;;;16.40;99.90;;;;;;5023279;28;20539;-63
2021/03/02 11:17:02;;;;;;;21.37;14.73;;;16.00;99.90;;;;;;5032108;28;20208;-62
2021/03/02 11:19:29;;;;;;;16.33;14.50;;;15.40;99.90;;;;;;5031997;28;20196;-60
2021/03/02 11:21:55;;;;;;;18.17;15.00;;;14.80;99.90;;;;;;5027949;28;20208;-61
2021/03/02 11:24:22;;;;;;;23.97;15.07;;;14.60;99.90;;;;;;5031816;28;20200;-61
2021/03/02 11:26:49;;;;;;;18.90;15.07;;;14.40;99.90;;;;;;5031017;28;20291;-61
2021/03/02 11:29:16;;;;;;;18.57;14.77;;;14.30;99.90;;;;;;5031329;28;20204;-70
2021/03/02 11:31:42;;;;;;;21.10;14.90;;;14.40;99.90;;;;;;5030072;28;20254;-61
2021/03/02 11:34:09;;;;;;;20.33;15.30;;;14.50;99.90;;;;;;5030046;28;20338;-65
2021/03/02 11:36:36;;;;;;;18.97;15.53;;;14.30;99.90;;;;;;5028502;28;20197;-63
2021/03/02 11:39:03;;;;;;;20.23;15.93;;;14.10;99.90;;;;;;5025799;28;20255;-64
2021/03/02 11:41:30;;;;;;;19.77;15.63;;;13.90;99.90;;;;;;5026695;28;20646;-62
2021/03/02 11:43:57;;;;;;;21.23;15.17;;;13.80;99.90;;;;;;5027997;28;20235;-62
2021/03/02 11:46:23;;;;;;;20.13;15.43;;;13.90;99.90;;;;;;5027219;28;20192;-61
2021/03/02 11:48:50;;;;;;;19.80;15.27;;;13.80;99.90;;;;;;5030548;28;20201;-61
2021/03/02 11:51:16;;;;;;;20.70;16.43;;;13.80;99.90;;;;;;5032071;28;20216;-62
2021/03/02 11:53:43;;;;;;;17.60;13.83;;;13.90;99.90;;;;;;5030975;28;20211;-61
2021/03/02 11:56:09;;;;;;;20.40;14.43;;;14.00;99.90;;;;;;5031071;28;20550;-63
2021/03/02 11:58:35;;;;;;;18.00;13.10;;;14.20;99.90;;;;;;5031171;28;20228;-61
2021/03/02 12:01:03;;;;;;;18.77;14.00;;;14.70;99.90;;;;;;5028850;28;20211;-63
2021/03/02 12:03:29;;;;;;;19.80;14.47;;;15.40;99.90;;;;;;5030298;28;20243;-62
2021/03/02 12:05:56;;;;;;;23.57;15.77;;;16.20;99.90;;;;;;5031399;28;20204;-61
2021/03/02 12:08:22;;;;;;;20.53;14.73;;;16.90;99.90;;;;;;5031502;28;20755;-61
2021/03/02 12:10:49;;;;;;;17.80;14.80;;;17.40;99.90;;;;;;5030008;28;20303;-61
2021/03/02 12:13:15;;;;;;;21.27;15.23;;;17.70;99.90;;;;;;5030863;28;20262;-61
2021/03/02 12:15:42;;;;;;;17.67;14.33;;;18.00;99.90;;;;;;5032036;28;20203;-62
2021/03/02 12:18:10;;;;;;;17.63;14.63;;;18.60;99.90;;;;;;5031781;28;20680;-61
2021/03/02 12:20:37;;;;;;;18.27;14.73;;;19.20;99.90;;;;;;5031217;28;20204;-62
2021/03/02 12:23:03;;;;;;;18.07;14.23;;;19.70;99.90;;;;;;5029709;28;20235;-63
2021/03/02 12:25:30;;;;;;;19.83;14.38;;;20.10;99.90;;;;;;5029862;28;20662;-61
2021/03/02 12:27:57;;;;;;;17.73;14.23;;;20.20;99.90;;;;;;5030204;28;20196;-62
2021/03/02 12:30:24;;;;;;;16.75;14.02;;;20.60;99.90;;;;;;5032971;28;20201;-65
2021/03/02 12:32:51;;;;;;;16.65;14.43;;;20.70;99.90;;;;;;5031130;28;20207;-63
2021/03/02 12:35:18;;;;;;;21.35;15.48;;;20.70;99.90;;;;;;5030736;28;20191;-64
2021/03/02 12:37:45;;;;;;;17.77;14.73;;;20.90;99.90;;;;;;5032773;28;20196;-64
2021/03/02 12:40:12;;;;;;;19.35;14.25;;;21.10;99.90;;;;;;5026989;28;20219;-61
2021/03/02 12:42:38;;;;;;;19.80;14.95;;;21.30;99.90;;;;;;5034994;28;20220;-64
2021/03/02 12:45:06;;;;;;;16.67;14.05;;;21.10;99.90;;;;;;5034252;28;20258;-62